createdAt,value
2019-04-20T00:03:07.792Z,10
2019-04-20T00:08:16.602Z,10
2019-04-20T00:13:23.891Z,11
2019-04-20T00:18:15.248Z,12
2019-04-20T00:23:22.540Z,12
2019-04-20T00:28:39.613Z,12
2019-04-20T00:33:36.754Z,14
2019-04-20T00:38:26.807Z,12
2019-04-20T00:43:32.119Z,13
2019-04-20T00:48:37.257Z,13
2019-04-20T00:53:37.945Z,13
2019-04-20T00:58:48.960Z,13
2019-04-20T01:03:49.314Z,13
2019-04-20T01:08:40.175Z,12
2019-04-20T01:13:49.348Z,12
2019-04-20T01:18:47.101Z,14
2019-04-20T01:23:53.001Z,12
2019-04-20T01:29:01.458Z,12
2019-04-20T01:34:00.558Z,11
2019-04-20T01:39:07.380Z,13
2019-04-20T01:43:56.957Z,13
2019-04-20T01:49:05.563Z,14
2019-04-20T01:54:15.712Z,14
2019-04-20T01:59:19.400Z,12
2019-04-20T02:04:11.878Z,14
2019-04-20T02:09:13.349Z,12
2019-04-20T02:14:13.710Z,14
2019-04-20T02:19:30.002Z,11
2019-04-20T02:24:17.820Z,11
2019-04-20T02:29:38.829Z,14
2019-04-20T02:34:54.537Z,12
2019-04-20T02:39:59.680Z,13
2019-04-20T02:49:56.261Z,12
2019-04-20T02:55:14.176Z,14
2019-04-20T03:00:05.169Z,13
2019-04-20T03:04:43.789Z,12
2019-04-20T03:09:56.150Z,12
2019-04-20T03:14:54.938Z,14
2019-04-20T03:19:55.448Z,14
2019-04-20T03:25:04.891Z,14
2019-04-20T03:30:14.490Z,14
2019-04-20T03:35:27.616Z,14
2019-04-20T03:40:08.163Z,13
2019-04-20T03:45:03.093Z,15
2019-04-20T03:50:23.856Z,14
2019-04-20T03:55:19.711Z,13
2019-04-20T04:00:21.383Z,14
2019-04-20T04:05:23.413Z,14
2019-04-20T04:10:20.506Z,14
2019-04-20T04:15:10.913Z,13
2019-04-20T04:20:16.501Z,15
2019-04-20T04:25:24.834Z,13
2019-04-20T04:30:32.780Z,15
2019-04-20T04:35:32.203Z,13
2019-04-20T04:40:49.097Z,14
2019-04-20T04:45:28.478Z,14
2019-04-20T04:50:30.121Z,15
2019-04-20T05:00:34.617Z,14
2019-04-20T05:10:39.162Z,14
2019-04-20T05:15:52.330Z,14
2019-04-20T05:21:04.155Z,14
2019-04-20T05:26:07.187Z,13
2019-04-20T05:30:52.416Z,15
2019-04-20T05:36:11.224Z,15
2019-04-20T05:41:11.196Z,15
2019-04-20T05:46:16.799Z,14
2019-04-20T06:01:24.533Z,15
2019-04-20T06:06:27.079Z,15
2019-04-20T06:11:25.448Z,14
2019-04-20T06:16:27.510Z,17
2019-04-20T06:21:50.182Z,17
2019-04-20T06:26:48.683Z,13
2019-04-20T06:31:35.164Z,13
2019-04-20T06:36:46.023Z,12
2019-04-20T06:41:59.779Z,11
2019-04-20T06:46:52.308Z,11
2019-04-20T06:51:47.215Z,11
2019-04-20T07:01:56.002Z,11
2019-04-20T07:07:02.163Z,11
2019-04-20T07:11:56.431Z,10
2019-04-20T07:16:57.174Z,10
2019-04-20T07:22:24.746Z,12
2019-04-20T07:27:00.285Z,10
2019-04-20T07:37:34.974Z,10
2019-04-20T07:47:21.630Z,8
2019-04-20T07:51:57.587Z,9
2019-04-20T07:57:19.115Z,8
2019-04-20T08:02:31.894Z,8
2019-04-20T08:07:07.727Z,9
2019-04-20T08:12:31.146Z,8
2019-04-20T08:17:44.115Z,8
2019-04-20T08:22:33.227Z,8
2019-04-20T08:27:15.866Z,8
2019-04-20T08:32:32.321Z,7
2019-04-20T08:37:38.398Z,9
2019-04-20T08:42:49.448Z,7
2019-04-20T08:47:37.629Z,8
2019-04-20T08:57:29.241Z,8
2019-04-20T09:02:32.495Z,7
2019-04-20T09:07:41.352Z,8
2019-04-20T09:12:53.036Z,7
2019-04-20T09:17:46.280Z,9
2019-04-20T09:22:48.970Z,9
2019-04-20T09:27:50.678Z,8
2019-04-20T09:33:04.429Z,8
2019-04-20T09:38:04.757Z,9
2019-04-20T09:42:50.880Z,9
2019-04-20T09:47:55.233Z,8
2019-04-20T09:53:08.636Z,8
2019-04-20T09:58:12.205Z,8
2019-04-20T10:03:00.707Z,8
2019-04-20T10:08:06.693Z,8
2019-04-20T10:13:07.189Z,8
2019-04-20T10:18:08.059Z,9
2019-04-20T10:23:12.315Z,9
2019-04-20T10:28:13.827Z,8
2019-04-20T10:33:15.586Z,8
2019-04-20T10:38:17.963Z,9
2019-04-20T10:43:21.760Z,8
2019-04-20T10:48:23.484Z,9
2019-04-20T10:53:25.958Z,9
2019-04-20T10:58:27.758Z,9
2019-04-20T11:03:30.204Z,9
2019-04-20T11:08:32.918Z,9
2019-04-20T11:13:35.351Z,9
2019-04-20T11:18:37.772Z,9
2019-04-20T11:23:40.531Z,8
2019-04-20T11:28:43.936Z,9
2019-04-20T11:33:45.856Z,8
2019-04-20T11:38:47.510Z,9
2019-04-20T11:43:51.437Z,10
2019-04-20T11:48:52.461Z,8
2019-04-20T11:53:56.400Z,7
2019-04-20T11:58:58.750Z,9
2019-04-20T12:04:06.755Z,8
2019-04-20T12:09:03.047Z,8
2019-04-20T12:14:04.796Z,8
2019-04-20T12:19:08.435Z,9
2019-04-20T12:24:10.214Z,8
2019-04-20T12:29:12.249Z,8
2019-04-20T12:34:16.012Z,8
2019-04-20T12:39:17.304Z,8
2019-04-20T12:44:19.730Z,8
2019-04-20T12:49:23.303Z,8
2019-04-20T12:54:24.944Z,8
2019-04-20T12:59:27.511Z,8
2019-04-20T13:04:30.143Z,8
2019-04-20T13:09:32.581Z,9
2019-04-20T13:14:34.612Z,8
2019-04-20T13:19:37.387Z,8
2019-04-20T13:24:40.885Z,8
2019-04-20T13:29:42.769Z,8
2019-04-20T13:34:44.496Z,8
2019-04-20T13:39:46.904Z,8
2019-04-20T13:44:49.039Z,9
2019-04-20T13:49:52.534Z,9
2019-04-20T13:54:54.053Z,8
2019-04-20T13:59:58.010Z,9
2019-04-20T14:04:59.066Z,8
2019-04-20T14:10:01.813Z,8
2019-04-20T14:15:05.001Z,8
2019-04-20T14:20:10.403Z,8
2019-04-20T14:25:09.122Z,8
2019-04-20T14:30:11.188Z,8
2019-04-20T14:35:14.569Z,9
2019-04-20T14:40:16.602Z,10
2019-04-20T14:45:18.662Z,8
2019-04-20T14:55:24.170Z,9
2019-04-20T15:00:25.922Z,8
2019-04-20T15:05:28.840Z,8
2019-04-20T15:10:31.106Z,9
2019-04-20T15:15:34.517Z,9
2019-04-20T15:20:35.805Z,7
2019-04-20T15:30:40.717Z,8
2019-04-20T15:35:44.144Z,7
2019-04-20T15:45:49.458Z,7
2019-04-20T15:50:51.859Z,9
2019-04-20T15:55:53.497Z,8
2019-04-20T16:00:56.491Z,6
2019-04-20T16:05:58.902Z,7
2019-04-20T16:11:01.351Z,6
2019-04-20T16:16:03.640Z,7
2019-04-20T16:21:09.653Z,10
2019-04-20T16:26:07.964Z,6
2019-04-20T16:31:12.249Z,7
2019-04-20T16:36:12.739Z,6
2019-04-20T16:41:15.108Z,6
2019-04-20T16:46:20.203Z,6
2019-04-20T16:51:20.806Z,6
2019-04-20T16:56:22.605Z,7
2019-04-20T17:01:25.581Z,5
2019-04-20T17:06:27.427Z,7
2019-04-20T17:11:31.715Z,6
2019-04-20T17:16:33.467Z,7
2019-04-20T17:21:35.544Z,7
2019-04-20T17:26:37.276Z,7
2019-04-20T17:31:39.910Z,9
2019-04-20T17:36:42.304Z,7
2019-04-20T17:42:02.791Z,9
2019-04-20T17:46:58.654Z,9
2019-04-20T17:52:09.932Z,9
2019-04-20T17:56:52.213Z,8
2019-04-20T18:02:06.496Z,9
2019-04-20T18:07:09.617Z,8
2019-04-20T18:12:04.492Z,9
2019-04-20T18:17:13.629Z,8
2019-04-20T18:22:05.656Z,9
2019-04-20T18:27:27.434Z,9
2019-04-20T18:32:09.377Z,13
2019-04-20T18:37:16.493Z,13
2019-04-20T18:42:20.972Z,11
2019-04-20T18:47:32.898Z,13
2019-04-20T18:52:19.757Z,12
2019-04-20T18:57:25.834Z,11
2019-04-20T19:02:27.802Z,12
2019-04-20T19:07:27.847Z,16
2019-04-20T19:12:36.561Z,28
2019-04-20T19:17:44.947Z,11
2019-04-20T19:22:35.564Z,11
2019-04-20T19:27:43.249Z,16
2019-04-20T19:32:51.357Z,8
2019-04-20T19:37:53.614Z,10
2019-04-20T19:42:58.828Z,10
2019-04-20T19:53:03.252Z,10
2019-04-20T19:58:06.083Z,10
2019-04-20T20:02:54.107Z,8
2019-04-20T20:08:03.737Z,9
2019-04-20T20:13:01.084Z,12
2019-04-20T20:23:03.721Z,10
2019-04-20T20:28:14.350Z,10
2019-04-20T20:33:27.675Z,10
2019-04-20T20:38:18.952Z,10
2019-04-20T20:43:22.561Z,10
2019-04-20T20:48:29.519Z,10
2019-04-20T20:53:32.496Z,10
2019-04-20T20:58:35.964Z,10
2019-04-20T21:03:31.136Z,11
2019-04-20T21:08:25.820Z,10
2019-04-20T21:13:33.176Z,10
2019-04-20T21:18:47.032Z,10
2019-04-20T21:23:45.420Z,10
2019-04-20T21:28:36.234Z,11
2019-04-20T21:33:39.719Z,11
2019-04-20T21:38:42.383Z,13
2019-04-20T21:43:44.519Z,14
2019-04-20T21:48:59.446Z,11
2019-04-20T21:53:48.288Z,12
2019-04-20T21:58:55.261Z,12
2019-04-20T22:03:52.447Z,12
2019-04-20T22:08:59.896Z,13
2019-04-20T22:13:57.521Z,14
2019-04-20T22:19:15.371Z,13
2019-04-20T22:24:13.219Z,12
2019-04-20T22:29:05.912Z,14
2019-04-20T22:34:13.824Z,12
2019-04-20T22:39:11.520Z,13
2019-04-20T22:44:16.953Z,13
2019-04-20T22:49:31.932Z,12
2019-04-20T22:54:33.345Z,14
2019-04-20T23:04:22.240Z,13
2019-04-20T23:09:24.714Z,14
2019-04-20T23:14:26.849Z,13
2019-04-20T23:19:37.968Z,16
2019-04-20T23:24:33.059Z,16
2019-04-20T23:29:37.700Z,16
2019-04-20T23:34:38.864Z,15
2019-04-20T23:39:41.411Z,14
2019-04-20T23:44:45.661Z,15
2019-04-20T23:50:02.891Z,13
2019-04-20T23:54:51.064Z,13
2019-04-20T23:59:50.201Z,12
